• Join FlightAware (Why Join?)
  • Login
  • US Flag 
08:20AM EST


 

Airport Tracker/Info


-or-


 

Live Flight TrackerFlight Track Log ✈ C-GRIR ✈ 26-Aug-2013 ✈ CYQB - CYUL

Flight Track Log - Related Links

Times and Time Zones

All times are in EDT time to prevent confusion due to time zone crossing. See the C-GRIR flight status page for this flight to view local times or setup timezone preferences in your user account.

Time Position Orientation Groundspeed Altitude Reporting Facility
EDT Latitude Longitude Course Direction KTS MPH feet Rate Location/Type
09:53AM 46.7667 -71.3833 221° Southwest 130 150 900  Level Montreal Center
09:54AM 46.7333 -71.4167 214° Southwest 130 150 2,400 1,500 Climbing Montreal Center
09:55AM 46.7000 -71.4667 226° Southwest 140 161 4,000 1,440 Climbing Montreal Center
09:56AM 46.6833 -71.4833 214° Southwest 140 161 5,300 1,260 Climbing Montreal Center
09:57AM 46.6667 -71.5500 250° West 150 173 6,600 1,320 Climbing Montreal Center
09:58AM 46.6333 -71.6000 226° Southwest 150 173 8,000 1,380 Climbing Montreal Center
09:59AM 46.5010 -71.7780 221° Southwest  Level FlightAware Approximate
09:59AM 46.6000 -71.6167 199° South 160 184 9,400  Level Montreal Center
10:00AM 46.5667 -71.6667 226° Southwest 150 173 10,600 1,200 Climbing Montreal Center
10:01AM 46.5333 -71.7167 226° Southwest 160 184 11,800 1,080 Climbing Montreal Center
10:02AM 46.5000 -71.7667 226° Southwest 170 196 12,800 900 Climbing Montreal Center
10:03AM 46.4667 -71.8333 234° Southwest 170 196 13,700 840 Climbing Montreal Center
10:04AM 46.4333 -71.8833 226° Southwest 180 207 14,500 840 Climbing Montreal Center
10:05AM 46.4000 -71.9333 226° Southwest 180 207 15,400 660 Climbing Montreal Center
10:06AM 46.3500 -71.9833 215° Southwest 190 219 15,900 300 Climbing Montreal Center
10:07AM 46.3333 -72.0333 244° Southwest 210 242 16,000  Climbing Montreal Center
10:08AM 46.2833 -72.1167 229° Southwest 220 253 16,000  Level Montreal Center
10:09AM 46.2500 -72.1667 226° Southwest 230 265 16,000 -60 Level Montreal Center
10:10AM 46.2000 -72.2333 223° Southwest 230 265 15,900  Descending Montreal Center
10:11AM 46.1500 -72.2833 215° Southwest 230 265 16,000 -120 Climbing Montreal Center
10:12AM 46.1000 -72.3667 229° Southwest 230 265 15,700 -600 Descending Montreal Center
10:13AM 46.0500 -72.4333 223° Southwest 240 276 14,900 -780 Descending Montreal Center
10:14AM 46.0000 -72.5167 229° Southwest 250 288 14,200 -780 Descending Montreal Center
10:15AM 45.9500 -72.5833 223° Southwest 250 288 13,400 -780 Descending Montreal Center
10:16AM 45.9167 -72.6500 234° Southwest 250 288 12,700 -840 Descending Montreal Center
10:17AM 45.8667 -72.7167 223° Southwest 250 288 11,800 -840 Descending Montreal Center
10:18AM 45.8167 -72.8000 229° Southwest 250 288 11,100 -840 Descending Montreal Center
10:19AM 45.7667 -72.8667 223° Southwest 250 288 10,200 -780 Descending Montreal Center
10:20AM 45.7167 -72.9500 229° Southwest 250 288 9,600 -720 Descending Montreal Center
10:21AM 45.7000 -73.0333 254° West 230 265 8,800 -720 Descending Montreal Center
10:22AM 45.6833 -73.1167 254° West 220 253 8,200 -660 Descending Montreal Center
10:23AM 45.6667 -73.2167 257° West 230 265 7,500 -900 Descending Montreal Center
10:24AM 45.6667 -73.2833 270° West 230 265 6,500 -1,080 Descending Montreal Center
10:25AM 45.6500 -73.3833 257° West 240 276 5,400 -1,020 Descending Montreal Center
10:26AM 45.6333 -73.4833 257° West 230 265 4,500 -1,080 Descending Montreal Center
10:27AM 45.6000 -73.5500 234° Southwest 210 242 3,300 -1,200 Descending Montreal Center
10:28AM 45.5500 -73.6000 215° Southwest 200 230 2,200 -900 Descending Montreal Center
10:29AM 45.5167 -73.6500 226° Southwest 170 196 1,500 -840 Descending Montreal Center
10:30AM 45.4833 -73.6667 199° South 150 173 600 -900 Descending Montreal Center
10:32AM 45.4681 -73.7414 173° South  Level Estimated